FCBB

Maya-Maya Airport

Brazzaville, Congo
METAR FCBB 220600Z 22003KT 9999 FEW010 SCT020 25/22 Q1013 NOSIG
Observed Flight Rules
Apr-22 @ 06:00 UTC (53 minutes ago) Visual Flight Rules
Wind Visibility Clouds
220° at 3 knots 10,000+ meters
  • Few at 1,000' AGL
  • Scattered at 2,000' AGL
Temperatures Readings
Current 25°C / 77°F
Dewpoint 22°C / 72°F
Humidity 83%
Altimeter 29.91" Hg
Pressure 1013 hPa
Elevation 316
METAR FCBB 220600Z 22003KT 9999 FEW010 SCT020 25/22 Q1013 NOSIG
Observed Flight Rules
Apr-22 @ 06:00 UTC
(53 minutes ago)
VFR
Wind Visibility
220° at 3 knots 10,000+ meters
Clouds
  • Few at 1,000' AGL
  • Scattered at 2,000' AGL
Temperature Dewpoint
25°C / 77°F 22°C / 72°F
Humidity Altimeter Pressure
83% 29.91" Hg 1013 hPa